Terminal Aerodrome Forecast
Issued by NWS

Home | Current Version | Previous Version | Text Only | Print | Product List | Glossary On
Versions: 1 2 3 4 5 6 7 8 9 10 11 12 13 14 15 16 17 18 19 20 21 22 23 24 25 26 27 28 29 30 31
000
FTUS43 KDMX 010527
TAFFOD
TAF
KFOD 010527Z 0106/0206 14006KT P6SM FEW016 OVC027
     FM010800 19006KT P6SM SCT020 BKN050
     FM011500 24006KT P6SM BKN110
     FM011700 29007KT P6SM SCT015 BKN080
     FM012200 29009G14KT P6SM SCT080
     FM020200 32003KT P6SM SKC=

USA.gov is the U.S. government's official web portal to all federal, state and local government web resources and services.